Perryville, New York
Current Conditions -  °F | °C
As of 5:54 AM on Thursday 23 Oct 2014 (Local Time) from KSYR Reporting Station
Overcast Overcast  
Wind Chill: 38°   Ceiling: 2900
Heat Index: 44°   Visibility: 10mi
Dew Point: 37°   Wind: 12mph
Humidity: 76%   Direction: 320°NW
Pressure: 30"   Gusts: NA
Location:  43.0803°N, 75.7643°W
Report Text: KSYR 230954Z 32010KT 10SM BKN029 OVC080 07/03 A3000 RMK AO2 SLP158 T00670028
Loading
Personal Weather Stations






























Interactive Weather Map
Tropical Storm Tracking
New forecast layout! Learn more

10-Day Weather Forecast

Advertisements
Track Severe Weather on mobile